createdAt,value
2018-09-25T00:00:02.882Z,1019.57
2018-09-25T00:01:02.893Z,1019.56
2018-09-25T00:02:02.860Z,1019.60
2018-09-25T00:03:02.869Z,1019.62
2018-09-25T00:04:02.837Z,1019.62
2018-09-25T00:05:02.824Z,1019.66
2018-09-25T00:06:02.814Z,1019.65
2018-09-25T00:07:02.830Z,1019.71
2018-09-25T00:08:02.813Z,1019.70
2018-09-25T00:09:02.781Z,1019.65
2018-09-25T00:10:02.771Z,1019.69
2018-09-25T00:11:02.761Z,1019.69
2018-09-25T00:12:02.746Z,1019.73
2018-09-25T00:13:02.776Z,1019.71
2018-09-25T00:14:02.723Z,1019.73
2018-09-25T00:15:02.713Z,1019.70
2018-09-25T00:16:02.703Z,1019.71
2018-09-25T00:17:02.691Z,1019.66
2018-09-25T00:18:02.701Z,1019.66
2018-09-25T00:19:02.677Z,1019.68
2018-09-25T00:20:02.658Z,1019.69
2018-09-25T00:21:02.645Z,1019.72
2018-09-25T00:22:02.634Z,1019.69
2018-09-25T00:23:02.646Z,1019.72
2018-09-25T00:24:02.610Z,1019.66
2018-09-25T00:25:02.614Z,1019.64
2018-09-25T00:26:02.588Z,1019.64
2018-09-25T00:27:02.577Z,1019.64
2018-09-25T00:28:02.588Z,1019.65
2018-09-25T00:29:02.553Z,1019.71
2018-09-25T00:30:02.547Z,1019.67
2018-09-25T00:31:02.551Z,1019.70
2018-09-25T00:32:02.521Z,1019.71
2018-09-25T00:33:02.531Z,1019.69
2018-09-25T00:34:02.500Z,1019.71
2018-09-25T00:35:02.485Z,1019.65
2018-09-25T00:36:02.475Z,1019.64
2018-09-25T00:37:02.478Z,1019.62
2018-09-25T00:38:02.472Z,1019.65
2018-09-25T00:39:02.444Z,1019.70
2018-09-25T00:40:02.431Z,1019.67
2018-09-25T00:41:02.419Z,1019.67
2018-09-25T00:42:02.406Z,1019.74
2018-09-25T00:43:02.436Z,1019.74
2018-09-25T00:44:02.385Z,1019.70
2018-09-25T00:45:02.374Z,1019.74
2018-09-25T00:46:02.364Z,1019.65
2018-09-25T00:47:02.360Z,1019.69
2018-09-25T00:48:02.364Z,1019.73
2018-09-25T00:49:02.353Z,1019.69
2018-09-25T00:50:02.322Z,1019.75
2018-09-25T00:51:02.309Z,1019.73
2018-09-25T00:52:02.294Z,1019.76
2018-09-25T00:53:02.304Z,1019.71
2018-09-25T00:54:02.272Z,1019.71
2018-09-25T00:55:02.283Z,1019.72
2018-09-25T00:56:02.248Z,1019.71
2018-09-25T00:57:02.239Z,1019.72
2018-09-25T00:58:02.246Z,1019.72
2018-09-25T00:59:02.215Z,1019.72
2018-09-25T01:00:02.203Z,1019.76
2018-09-25T01:01:02.208Z,1019.76
2018-09-25T01:02:02.180Z,1019.74
2018-09-25T01:03:02.192Z,1019.74
2018-09-25T01:04:02.181Z,1019.72
2018-09-25T01:05:02.147Z,1019.69
2018-09-25T01:06:02.135Z,1019.73
2018-09-25T01:07:02.140Z,1019.74
2018-09-25T01:08:02.113Z,1019.76
2018-09-25T01:09:02.125Z,1019.77
2018-09-25T01:10:02.091Z,1019.74
2018-09-25T01:11:02.080Z,1019.73
2018-09-25T01:12:02.068Z,1019.72
2018-09-25T01:13:02.072Z,1019.73
2018-09-25T01:14:02.066Z,1019.76
2018-09-25T01:15:02.034Z,1019.75
2018-09-25T01:16:02.022Z,1019.71
2018-09-25T01:17:02.011Z,1019.76
2018-09-25T01:18:02.002Z,1019.76
2018-09-25T01:19:02.040Z,1019.71
2018-09-25T01:20:01.978Z,1019.76
2018-09-25T01:21:01.967Z,1019.74
2018-09-25T01:22:01.955Z,1019.77
2018-09-25T01:23:01.946Z,1019.74
2018-09-25T01:24:01.962Z,1019.73
2018-09-25T01:25:01.935Z,1019.76
2018-09-25T01:26:01.909Z,1019.74
2018-09-25T01:27:01.904Z,1019.76
2018-09-25T01:28:01.887Z,1019.78
2018-09-25T01:29:01.905Z,1019.81
2018-09-25T01:30:01.891Z,1019.80
2018-09-25T01:31:01.853Z,1019.76
2018-09-25T01:32:01.842Z,1019.76
2018-09-25T01:33:01.849Z,1019.75
2018-09-25T01:34:01.842Z,1019.77
2018-09-25T01:35:01.810Z,1019.76
2018-09-25T01:36:01.828Z,1019.76
2018-09-25T01:37:01.786Z,1019.76
2018-09-25T01:38:01.774Z,1019.77
2018-09-25T01:39:01.787Z,1019.78
2018-09-25T01:40:01.755Z,1019.77
2018-09-25T01:41:01.741Z,1019.73
2018-09-25T01:42:01.745Z,1019.75
2018-09-25T01:43:01.720Z,1019.75
2018-09-25T01:44:01.729Z,1019.79
2018-09-25T01:45:01.697Z,1019.77
2018-09-25T01:46:01.683Z,1019.80
2018-09-25T01:47:01.671Z,1019.82
2018-09-25T01:48:01.677Z,1019.77
2018-09-25T01:49:01.672Z,1019.76
2018-09-25T01:50:01.638Z,1019.77
2018-09-25T01:51:01.628Z,1019.70
2018-09-25T01:52:01.615Z,1019.74
2018-09-25T01:53:01.604Z,1019.77
2018-09-25T01:54:01.630Z,1019.76
2018-09-25T01:55:01.582Z,1019.77
2018-09-25T01:56:01.574Z,1019.75
2018-09-25T01:57:01.560Z,1019.76
2018-09-25T01:58:01.550Z,1019.75
2018-09-25T01:59:01.558Z,1019.85
2018-09-25T02:00:01.544Z,1019.84
2018-09-25T02:01:01.518Z,1019.84
2018-09-25T02:02:01.504Z,1019.94
2018-09-25T02:03:01.491Z,1019.89
2018-09-25T02:04:01.507Z,1019.89
2018-09-25T02:05:01.470Z,1019.87
2018-09-25T02:06:01.486Z,1019.94
2018-09-25T02:07:01.447Z,1019.92
2018-09-25T02:08:01.434Z,1019.90
2018-09-25T02:09:01.446Z,1019.92
2018-09-25T02:10:01.412Z,1019.93
2018-09-25T02:11:01.402Z,1019.96
2018-09-25T02:12:01.424Z,1019.91
2018-09-25T02:13:01.379Z,1019.89
2018-09-25T02:14:01.389Z,1019.88
2018-09-25T02:15:01.362Z,1019.90
2018-09-25T02:16:01.346Z,1019.88
2018-09-25T02:17:01.332Z,1019.96
2018-09-25T02:18:01.347Z,1019.88
2018-09-25T02:19:01.332Z,1019.94
2018-09-25T02:20:01.305Z,1019.89
2018-09-25T02:21:01.288Z,1019.90
2018-09-25T02:22:01.277Z,1019.91
2018-09-25T02:23:01.269Z,1019.92
2018-09-25T02:24:01.297Z,1019.97
2018-09-25T02:25:01.242Z,1020.01
2018-09-25T02:26:01.232Z,1020.02
2018-09-25T02:27:01.220Z,1020.05
2018-09-25T02:28:01.209Z,1020.06
2018-09-25T02:29:01.218Z,1020.07
2018-09-25T02:30:01.208Z,1020.05
2018-09-25T02:31:01.174Z,1020.05
2018-09-25T02:32:01.164Z,1020.07
2018-09-25T02:33:01.153Z,1020.02
2018-09-25T02:34:01.162Z,1020.03
2018-09-25T02:35:01.131Z,1020.06
2018-09-25T02:36:01.131Z,1020.02
2018-09-25T02:37:01.107Z,1020.03
2018-09-25T02:38:01.103Z,1020.02
2018-09-25T02:39:01.105Z,1020.02
2018-09-25T02:40:01.073Z,1020.01
2018-09-25T02:41:01.065Z,1019.98
2018-09-25T02:42:01.069Z,1020.00
2018-09-25T02:43:01.038Z,1020.02
2018-09-25T02:44:01.050Z,1020.02
2018-09-25T02:45:01.016Z,1020.02
2018-09-25T02:46:01.005Z,1020.04
2018-09-25T02:47:00.993Z,1020.02
2018-09-25T02:48:00.991Z,1020.03
2018-09-25T02:49:00.992Z,1019.98
2018-09-25T02:50:00.960Z,1019.97
2018-09-25T02:51:02.930Z,1020.01
2018-09-25T02:52:00.937Z,1019.98
2018-09-25T02:53:00.926Z,1020.00
2018-09-25T02:54:00.928Z,1020.01
2018-09-25T02:55:00.928Z,1019.98
2018-09-25T02:56:00.893Z,1019.97
2018-09-25T02:57:00.880Z,1019.94
2018-09-25T02:58:00.876Z,1020.00
2018-09-25T02:59:00.857Z,1019.98
2018-09-25T03:00:00.890Z,1020.01
2018-09-25T03:01:00.835Z,1019.95
2018-09-25T03:02:00.824Z,1020.02
2018-09-25T03:03:00.812Z,1019.98
2018-09-25T03:04:00.801Z,1019.97
2018-09-25T03:05:00.815Z,1020.02
2018-09-25T03:06:00.789Z,1019.98
2018-09-25T03:07:00.767Z,1019.92
2018-09-25T03:08:00.756Z,1019.91
2018-09-25T03:09:00.746Z,1019.85
2018-09-25T03:10:00.755Z,1019.87
2018-09-25T03:11:00.722Z,1019.87
2018-09-25T03:12:00.741Z,1019.84
2018-09-25T03:13:00.699Z,1019.90
2018-09-25T03:14:00.689Z,1019.86
2018-09-25T03:15:00.705Z,1019.87
2018-09-25T03:16:00.666Z,1019.87
2018-09-25T03:17:00.655Z,1019.84
2018-09-25T03:18:00.669Z,1019.84
2018-09-25T03:19:00.632Z,1019.85
2018-09-25T03:20:00.642Z,1019.83
2018-09-25T03:21:00.611Z,1019.80
2018-09-25T03:22:00.602Z,1019.83
2018-09-25T03:23:00.587Z,1019.77
2018-09-25T03:24:00.696Z,1019.81
2018-09-25T03:25:00.586Z,1019.81
2018-09-25T03:26:00.554Z,1019.78
2018-09-25T03:27:00.543Z,1019.83
2018-09-25T03:28:00.530Z,1019.80
2018-09-25T03:29:00.519Z,1019.84
2018-09-25T03:30:00.546Z,1019.85
2018-09-25T03:31:00.497Z,1019.79
2018-09-25T03:32:00.486Z,1019.77
2018-09-25T03:33:00.473Z,1019.69
2018-09-25T03:34:00.462Z,1019.73
2018-09-25T03:35:00.472Z,1019.72
2018-09-25T03:36:00.456Z,1019.68
2018-09-25T03:37:00.429Z,1019.69
2018-09-25T03:38:00.418Z,1019.75
2018-09-25T03:39:00.406Z,1019.76
2018-09-25T03:40:00.417Z,1019.73
2018-09-25T03:41:00.383Z,1019.73
2018-09-25T03:42:00.384Z,1019.73
2018-09-25T03:43:00.360Z,1019.72
2018-09-25T03:44:00.348Z,1019.74
2018-09-25T03:45:00.366Z,1019.71
2018-09-25T03:46:00.326Z,1019.69
2018-09-25T03:47:00.316Z,1019.76
2018-09-25T03:48:00.322Z,1019.72
2018-09-25T03:49:00.293Z,1019.73
2018-09-25T03:50:00.304Z,1019.75
2018-09-25T03:51:00.270Z,1019.76
2018-09-25T03:52:00.259Z,1019.79
2018-09-25T03:53:00.248Z,1019.80
2018-09-25T03:54:00.251Z,1019.83
2018-09-25T03:55:00.252Z,1019.82
2018-09-25T03:56:00.213Z,1019.86
2018-09-25T03:57:00.203Z,1019.88
2018-09-25T03:58:00.191Z,1019.91
2018-09-25T03:59:00.180Z,1019.95
2018-09-25T04:00:00.214Z,1019.99
2018-09-25T04:01:00.157Z,1019.96
2018-09-25T04:02:00.146Z,1019.99
2018-09-25T04:03:00.137Z,1020.00
2018-09-25T04:04:00.123Z,1019.99
2018-09-25T04:05:00.134Z,1020.00
2018-09-25T04:06:00.120Z,1019.96
2018-09-25T04:07:00.090Z,1019.91
2018-09-25T04:08:00.079Z,1019.90
2018-09-25T04:09:00.068Z,1019.91
2018-09-25T04:10:00.078Z,1019.92
2018-09-25T04:11:00.050Z,1019.94
2018-09-25T04:12:00.047Z,1019.94
2018-09-25T04:13:00.022Z,1019.93
2018-09-25T04:14:00.013Z,1019.95
2018-09-25T04:15:00.023Z,1019.92
2018-09-25T04:15:59.988Z,1019.96
2018-09-25T04:16:59.977Z,1019.96
2018-09-25T04:17:59.984Z,1019.95
2018-09-25T04:18:59.954Z,1019.92
2018-09-25T04:19:59.967Z,1019.95
2018-09-25T04:20:59.934Z,1019.92
2018-09-25T04:21:59.921Z,1019.95
2018-09-25T04:22:59.909Z,1019.97
2018-09-25T04:23:59.922Z,1020.01
2018-09-25T04:24:59.909Z,1020.04
2018-09-25T04:25:59.876Z,1020.08
2018-09-25T04:26:59.867Z,1020.03
2018-09-25T04:27:59.874Z,1020.01
2018-09-25T04:28:59.842Z,1020.06
2018-09-25T04:29:59.842Z,1020.10
2018-09-25T04:30:59.841Z,1020.04
2018-09-25T04:31:59.809Z,1020.02
2018-09-25T04:32:59.796Z,1020.05
2018-09-25T04:33:59.785Z,1020.03
2018-09-25T04:34:59.775Z,1020.04
2018-09-25T04:35:59.804Z,1020.05
2018-09-25T04:36:59.755Z,1020.06
2018-09-25T04:37:59.741Z,1020.03
2018-09-25T04:38:59.728Z,1020.04
2018-09-25T04:39:59.717Z,1020.07
2018-09-25T04:40:59.727Z,1020.03
2018-09-25T04:41:59.714Z,1020.05
2018-09-25T04:42:59.684Z,1020.01
2018-09-25T04:43:59.673Z,1019.96
2018-09-25T04:44:59.659Z,1019.98
2018-09-25T04:45:59.670Z,1019.98
2018-09-25T04:46:59.642Z,1019.94
2018-09-25T04:47:59.649Z,1019.95
2018-09-25T04:48:59.621Z,1019.95
2018-09-25T04:49:59.604Z,1020.00
2018-09-25T04:50:59.614Z,1020.04
2018-09-25T04:51:59.582Z,1020.03
2018-09-25T04:52:59.570Z,1020.09
2018-09-25T04:53:59.573Z,1020.06
2018-09-25T04:54:59.548Z,1020.05
2018-09-25T04:55:59.558Z,1020.08
2018-09-25T04:56:59.539Z,1020.01
2018-09-25T04:57:59.517Z,1020.05
2018-09-25T04:58:59.504Z,1020.08
2018-09-25T04:59:59.507Z,1020.09
2018-09-25T05:00:59.501Z,1020.06
2018-09-25T05:01:59.470Z,1020.09
2018-09-25T05:02:59.458Z,1020.09
2018-09-25T05:03:59.449Z,1020.10
2018-09-25T05:04:59.435Z,1020.12
2018-09-25T05:05:59.472Z,1020.14
2018-09-25T05:06:59.414Z,1020.12
2018-09-25T05:07:59.402Z,1020.15
2018-09-25T05:08:59.393Z,1020.17
2018-09-25T05:09:59.382Z,1020.19
2018-09-25T05:10:59.389Z,1020.20
2018-09-25T05:11:59.404Z,1020.23
2018-09-25T05:12:59.348Z,1020.25
2018-09-25T05:13:59.338Z,1020.23
2018-09-25T05:14:59.324Z,1020.29
2018-09-25T05:15:59.332Z,1020.25
2018-09-25T05:16:59.303Z,1020.25
2018-09-25T05:17:59.351Z,1020.30
2018-09-25T05:18:59.277Z,1020.31
2018-09-25T05:19:59.266Z,1020.30
2018-09-25T05:20:59.276Z,1020.31
2018-09-25T05:21:59.243Z,1020.32
2018-09-25T05:22:59.232Z,1020.33
2018-09-25T05:23:59.231Z,1020.35
2018-09-25T05:24:59.309Z,1020.37
2018-09-25T05:25:59.220Z,1020.38
2018-09-25T05:26:59.188Z,1020.38
2018-09-25T05:27:59.175Z,1020.39
2018-09-25T05:28:59.165Z,1020.40
2018-09-25T05:29:59.191Z,1020.42
2018-09-25T05:30:59.165Z,1020.37
2018-09-25T05:31:59.130Z,1020.37
2018-09-25T05:32:59.119Z,1020.41
2018-09-25T05:33:59.108Z,1020.41
2018-09-25T05:34:59.096Z,1020.42
2018-09-25T05:35:59.118Z,1020.44
2018-09-25T05:36:59.073Z,1020.43
2018-09-25T05:37:59.062Z,1020.42
2018-09-25T05:38:59.051Z,1020.44
2018-09-25T05:39:59.041Z,1020.44
2018-09-25T05:40:59.108Z,1020.46
2018-09-25T05:41:59.031Z,1020.46
2018-09-25T05:42:59.008Z,1020.42
2018-09-25T05:43:58.997Z,1020.43
2018-09-25T05:44:58.985Z,1020.43
2018-09-25T05:45:59.002Z,1020.42
2018-09-25T05:46:58.969Z,1020.44
2018-09-25T05:47:58.971Z,1020.40
2018-09-25T05:48:59.052Z,1020.45
2018-09-25T05:49:58.930Z,1020.49
2018-09-25T05:50:58.939Z,1020.45
2018-09-25T05:51:58.937Z,1020.51
2018-09-25T05:52:58.896Z,1020.51
2018-09-25T05:53:58.883Z,1020.51
2018-09-25T05:54:58.879Z,1020.53
2018-09-25T05:55:58.938Z,1020.56
2018-09-25T05:56:58.853Z,1020.61
2018-09-25T05:57:58.857Z,1020.67
2018-09-25T05:58:58.838Z,1020.68
2018-09-25T05:59:58.817Z,1020.70
2018-09-25T06:00:58.892Z,1020.70
2018-09-25T06:01:58.795Z,1020.71
2018-09-25T06:02:58.784Z,1020.71
2018-09-25T06:03:58.773Z,1020.73
2018-09-25T06:04:58.761Z,1020.70
2018-09-25T06:05:58.786Z,1020.65
2018-09-25T06:06:58.739Z,1020.65
2018-09-25T06:07:58.740Z,1020.65
2018-09-25T06:08:58.717Z,1020.68
2018-09-25T06:09:58.707Z,1020.68
2018-09-25T06:10:58.694Z,1020.68
2018-09-25T06:11:58.706Z,1020.66
2018-09-25T06:12:58.744Z,1020.68
2018-09-25T06:13:58.664Z,1020.66
2018-09-25T06:14:58.649Z,1020.60
2018-09-25T06:15:58.657Z,1020.66
2018-09-25T06:16:58.648Z,1020.61
2018-09-25T06:17:58.616Z,1020.62
2018-09-25T06:18:58.604Z,1020.56
2018-09-25T06:19:58.593Z,1020.58
2018-09-25T06:20:58.596Z,1020.63
2018-09-25T06:21:58.592Z,1020.65
2018-09-25T06:22:58.614Z,1020.64
2018-09-25T06:23:58.549Z,1020.69
2018-09-25T06:24:58.539Z,1020.67
2018-09-25T06:25:58.525Z,1020.67
2018-09-25T06:26:58.551Z,1020.66
2018-09-25T06:27:58.504Z,1020.66
2018-09-25T06:28:58.493Z,1020.74
2018-09-25T06:29:58.661Z,1020.73
2018-09-25T06:30:58.470Z,1020.72
2018-09-25T06:31:58.478Z,1020.74
2018-09-25T06:32:58.450Z,1020.75
2018-09-25T06:33:58.435Z,1020.79
2018-09-25T06:34:58.483Z,1020.80
2018-09-25T06:35:58.415Z,1020.83
2018-09-25T06:36:58.445Z,1020.84
2018-09-25T06:37:58.392Z,1020.85
2018-09-25T06:38:58.389Z,1020.89
2018-09-25T06:39:58.371Z,1020.89
2018-09-25T06:40:58.483Z,1020.89
2018-09-25T06:41:58.367Z,1020.86
2018-09-25T06:42:58.335Z,1020.90
2018-09-25T06:43:58.324Z,1020.90
2018-09-25T06:44:58.321Z,1020.88
2018-09-25T06:45:58.301Z,1020.85
2018-09-25T06:46:58.311Z,1020.88
2018-09-25T06:47:58.278Z,1020.88
2018-09-25T06:48:58.267Z,1020.85
2018-09-25T06:49:58.256Z,1020.80
2018-09-25T06:50:58.259Z,1020.82
2018-09-25T06:51:58.256Z,1020.87
2018-09-25T06:52:58.223Z,1020.86
2018-09-25T06:53:58.212Z,1020.88
2018-09-25T06:54:58.254Z,1020.86
2018-09-25T06:55:58.188Z,1020.88
2018-09-25T06:56:58.209Z,1020.89
2018-09-25T06:57:58.168Z,1020.88
2018-09-25T06:58:58.157Z,1020.89
2018-09-25T06:59:58.143Z,1020.90
2018-09-25T07:00:58.190Z,1020.93
2018-09-25T07:01:58.142Z,1020.95
2018-09-25T07:02:58.124Z,1020.94
2018-09-25T07:03:58.097Z,1020.96
2018-09-25T07:04:58.090Z,1020.91
2018-09-25T07:05:58.076Z,1020.90
2018-09-25T07:06:58.106Z,1020.90
2018-09-25T07:07:58.055Z,1020.91
2018-09-25T07:08:58.041Z,1020.91
2018-09-25T07:09:58.130Z,1020.94
2018-09-25T07:10:58.021Z,1020.97
2018-09-25T07:11:58.044Z,1020.95
2018-09-25T07:12:57.996Z,1020.98
2018-09-25T07:13:57.987Z,1021.02
2018-09-25T07:14:57.973Z,1021.02
2018-09-25T07:15:57.974Z,1021.02
2018-09-25T07:16:57.973Z,1021.02
2018-09-25T07:17:57.974Z,1021.06
2018-09-25T07:18:57.943Z,1021.08
2018-09-25T07:19:57.917Z,1021.07
2018-09-25T07:20:57.907Z,1021.10
2018-09-25T07:21:57.929Z,1021.18
2018-09-25T07:22:57.885Z,1021.15
2018-09-25T07:23:57.889Z,1021.21
2018-09-25T07:24:57.892Z,1021.19
2018-09-25T07:25:57.851Z,1021.18
2018-09-25T07:26:57.859Z,1021.26
2018-09-25T07:27:57.829Z,1021.26
2018-09-25T07:28:57.820Z,1021.21
2018-09-25T07:29:57.820Z,1021.24
2018-09-25T07:30:57.844Z,1021.30
2018-09-25T07:31:57.804Z,1021.29
2018-09-25T07:32:57.772Z,1021.31
2018-09-25T07:33:57.761Z,1021.36
2018-09-25T07:34:57.748Z,1021.38
2018-09-25T07:35:57.750Z,1021.41
2018-09-25T07:36:57.749Z,1021.37
2018-09-25T07:37:57.718Z,1021.41
2018-09-25T07:38:57.772Z,1021.41
2018-09-25T07:39:57.694Z,1021.43
2018-09-25T07:40:57.683Z,1021.43
2018-09-25T07:41:57.694Z,1021.41
2018-09-25T07:42:57.671Z,1021.44
2018-09-25T07:43:57.646Z,1021.48
2018-09-25T07:44:57.637Z,1021.47
2018-09-25T07:45:57.625Z,1021.50
2018-09-25T07:46:57.634Z,1021.52
2018-09-25T07:47:57.603Z,1021.53
2018-09-25T07:48:57.594Z,1021.49
2018-09-25T07:49:57.591Z,1021.51
2018-09-25T07:50:57.570Z,1021.51
2018-09-25T07:51:57.607Z,1021.47
2018-09-25T07:52:57.569Z,1021.52
2018-09-25T07:53:57.534Z,1021.59
2018-09-25T07:54:57.534Z,1021.59
2018-09-25T07:55:57.512Z,1021.53
2018-09-25T07:56:57.513Z,1021.59
2018-09-25T07:57:57.605Z,1021.59
2018-09-25T07:58:59.395Z,1021.60
2018-09-25T07:59:57.468Z,1021.60
2018-09-25T08:00:57.454Z,1021.62
2018-09-25T08:01:57.443Z,1021.66
2018-09-25T08:02:57.481Z,1021.63
2018-09-25T08:03:58.569Z,1021.67
2018-09-25T08:04:57.526Z,1021.67
2018-09-25T08:05:57.683Z,1021.64
2018-09-25T08:06:57.394Z,1021.64
2018-09-25T08:07:58.386Z,1021.63
2018-09-25T08:08:57.452Z,1021.67
2018-09-25T08:09:57.403Z,1021.62
2018-09-25T08:10:57.342Z,1021.64
2018-09-25T08:11:57.331Z,1021.62
2018-09-25T08:12:57.451Z,1021.69
2018-09-25T08:13:57.310Z,1021.67
2018-09-25T08:14:57.748Z,1021.70
2018-09-25T08:15:59.147Z,1021.73
2018-09-25T08:16:57.286Z,1021.70
2018-09-25T08:17:57.286Z,1021.76
2018-09-25T08:18:57.483Z,1021.74
2018-09-25T08:19:57.982Z,1021.69
2018-09-25T08:20:57.331Z,1021.76
2018-09-25T08:21:57.218Z,1021.71
2018-09-25T08:22:58.855Z,1021.75
2018-09-25T08:23:57.218Z,1021.78
2018-09-25T08:24:57.197Z,1021.77
2018-09-25T08:25:57.178Z,1021.74
2018-09-25T08:26:57.324Z,1021.78
2018-09-25T08:27:57.187Z,1021.76
2018-09-25T08:28:57.162Z,1021.78
2018-09-25T08:29:57.130Z,1021.76
2018-09-25T08:30:57.859Z,1021.79
2018-09-25T08:31:57.106Z,1021.78
2018-09-25T08:32:57.127Z,1021.77
2018-09-25T08:33:57.086Z,1021.70
2018-09-25T08:34:57.076Z,1021.75
2018-09-25T08:35:57.068Z,1021.77
2018-09-25T08:36:57.056Z,1021.77
2018-09-25T08:37:57.060Z,1021.77
2018-09-25T08:38:57.061Z,1021.76
2018-09-25T08:39:57.016Z,1021.78
2018-09-25T08:40:57.016Z,1021.82
2018-09-25T08:41:56.993Z,1021.83
2018-09-25T08:42:57.004Z,1021.84
2018-09-25T08:43:56.970Z,1021.85
2018-09-25T08:44:56.980Z,1021.87
2018-09-25T08:45:56.977Z,1021.88
2018-09-25T08:46:56.952Z,1021.88
2018-09-25T08:47:56.950Z,1021.87
2018-09-25T08:48:56.990Z,1021.95
2018-09-25T08:49:57.430Z,1021.91
2018-09-25T08:50:56.892Z,1021.94
2018-09-25T08:51:56.880Z,1021.92
2018-09-25T08:52:57.084Z,1021.95
2018-09-25T08:53:56.862Z,1021.95
2018-09-25T08:54:56.846Z,1021.98
2018-09-25T08:55:56.835Z,1021.98
2018-09-25T08:56:57.632Z,1022.00
2018-09-25T08:57:56.848Z,1021.97
2018-09-25T08:58:56.801Z,1021.95
2018-09-25T08:59:56.802Z,1021.98
2018-09-25T09:00:57.048Z,1021.99
2018-09-25T09:01:56.930Z,1021.95
2018-09-25T09:02:56.879Z,1021.96
2018-09-25T09:03:56.745Z,1021.96
2018-09-25T09:04:56.742Z,1021.94
2018-09-25T09:05:56.722Z,1021.98
2018-09-25T09:06:56.711Z,1021.95
2018-09-25T09:07:56.808Z,1021.97
2018-09-25T09:08:56.689Z,1021.96
2018-09-25T09:09:56.678Z,1021.94
2018-09-25T09:10:56.667Z,1021.93
2018-09-25T09:11:58.310Z,1021.98
2018-09-25T09:12:56.692Z,1021.95
2018-09-25T09:13:56.768Z,1022.01
2018-09-25T09:14:56.660Z,1022.00
2018-09-25T09:15:57.645Z,1021.99
2018-09-25T09:16:56.671Z,1021.99
2018-09-25T09:17:56.659Z,1021.96
2018-09-25T09:18:56.664Z,1022.00
2018-09-25T09:19:56.655Z,1021.97
2018-09-25T09:20:56.554Z,1021.95
2018-09-25T09:21:57.026Z,1021.92
2018-09-25T09:22:56.554Z,1021.91
2018-09-25T09:23:56.521Z,1021.95
2018-09-25T09:24:56.515Z,1021.93
2018-09-25T09:25:56.499Z,1021.93
2018-09-25T09:26:56.486Z,1021.93
2018-09-25T09:27:56.907Z,1021.89
2018-09-25T09:28:56.573Z,1021.90
2018-09-25T09:29:56.457Z,1021.91
2018-09-25T09:30:56.441Z,1021.85
2018-09-25T09:31:56.431Z,1021.91
2018-09-25T09:32:56.465Z,1021.90
2018-09-25T09:33:56.417Z,1021.95
2018-09-25T09:34:56.412Z,1021.94
2018-09-25T09:35:56.387Z,1021.95
2018-09-25T09:36:56.521Z,1021.94
2018-09-25T09:37:56.377Z,1021.94
2018-09-25T09:38:56.376Z,1021.91
2018-09-25T09:39:56.342Z,1021.96
2018-09-25T09:40:56.409Z,1021.94
2018-09-25T09:41:56.487Z,1021.95
2018-09-25T09:42:56.319Z,1021.94
2018-09-25T09:43:56.321Z,1021.94
2018-09-25T09:44:56.317Z,1021.93
2018-09-25T09:45:56.282Z,1021.88
2018-09-25T09:46:56.265Z,1021.91
2018-09-25T09:47:56.267Z,1021.92
2018-09-25T09:48:56.265Z,1021.91
2018-09-25T09:49:56.288Z,1021.87
2018-09-25T09:50:56.218Z,1021.82
2018-09-25T09:51:56.208Z,1021.86
2018-09-25T09:52:56.196Z,1021.81
2018-09-25T09:53:56.214Z,1021.83
2018-09-25T09:54:56.173Z,1021.86
2018-09-25T09:55:56.162Z,1021.86
2018-09-25T09:56:56.163Z,1021.84
2018-09-25T09:57:56.140Z,1021.83
2018-09-25T09:58:56.149Z,1021.85
2018-09-25T09:59:56.118Z,1021.83
2018-09-25T10:00:56.107Z,1021.82
2018-09-25T10:01:56.112Z,1021.84
2018-09-25T10:02:56.087Z,1021.80
2018-09-25T10:03:56.094Z,1021.80
2018-09-25T10:04:56.067Z,1021.82
2018-09-25T10:05:56.052Z,1021.81
2018-09-25T10:06:56.188Z,1021.80
2018-09-25T10:07:56.047Z,1021.79
2018-09-25T10:08:56.042Z,1021.78
2018-09-25T10:09:56.007Z,1021.80
2018-09-25T10:10:55.994Z,1021.75
2018-09-25T10:11:55.986Z,1021.78
2018-09-25T10:12:55.972Z,1021.79
2018-09-25T10:13:56.021Z,1021.77
2018-09-25T10:14:55.949Z,1021.78
2018-09-25T10:15:55.943Z,1021.76
2018-09-25T10:16:55.936Z,1021.75
2018-09-25T10:17:55.918Z,1021.76
2018-09-25T10:18:56.046Z,1021.73
2018-09-25T10:19:55.898Z,1021.73
2018-09-25T10:20:55.884Z,1021.75
2018-09-25T10:21:55.876Z,1021.77
2018-09-25T10:22:55.860Z,1021.74
2018-09-25T10:23:55.890Z,1021.76
2018-09-25T10:24:55.842Z,1021.72
2018-09-25T10:25:55.827Z,1021.72
2018-09-25T10:26:55.819Z,1021.69
2018-09-25T10:27:55.854Z,1021.71
2018-09-25T10:28:55.813Z,1021.71
2018-09-25T10:29:55.782Z,1021.70
2018-09-25T10:30:55.813Z,1021.71
2018-09-25T10:31:55.788Z,1021.68
2018-09-25T10:32:55.749Z,1021.68
2018-09-25T10:33:55.874Z,1021.69
2018-09-25T10:34:55.726Z,1021.67
2018-09-25T10:35:55.715Z,1021.62
2018-09-25T10:36:55.705Z,1021.70
2018-09-25T10:37:55.701Z,1021.63
2018-09-25T10:38:55.739Z,1021.67
2018-09-25T10:39:55.670Z,1021.65
2018-09-25T10:40:55.684Z,1021.66
2018-09-25T10:41:55.719Z,1021.68
2018-09-25T10:42:55.636Z,1021.63
2018-09-25T10:43:55.670Z,1021.67
2018-09-25T10:44:55.628Z,1021.67
2018-09-25T10:45:55.602Z,1021.68
2018-09-25T10:46:55.596Z,1021.65
2018-09-25T10:47:55.584Z,1021.67
2018-09-25T10:48:55.590Z,1021.66
2018-09-25T10:49:55.609Z,1021.65
2018-09-25T10:50:55.557Z,1021.64
2018-09-25T10:51:55.535Z,1021.65
2018-09-25T10:52:55.535Z,1021.65
2018-09-25T10:53:55.535Z,1021.66
2018-09-25T10:54:55.501Z,1021.69
2018-09-25T10:55:55.615Z,1021.66
2018-09-25T10:56:55.480Z,1021.66
2018-09-25T10:57:55.467Z,1021.63
2018-09-25T10:58:55.479Z,1021.64
2018-09-25T10:59:55.458Z,1021.61
2018-09-25T11:00:55.436Z,1021.58
2018-09-25T11:01:55.422Z,1021.56
2018-09-25T11:02:55.478Z,1021.59
2018-09-25T11:03:55.422Z,1021.55
2018-09-25T11:04:55.389Z,1021.59
2018-09-25T11:05:55.385Z,1021.59
2018-09-25T11:06:55.366Z,1021.61
2018-09-25T11:07:55.354Z,1021.62
2018-09-25T11:08:55.364Z,1021.61
2018-09-25T11:09:55.366Z,1021.64
2018-09-25T11:10:55.321Z,1021.61
2018-09-25T11:11:55.314Z,1021.58
2018-09-25T11:12:55.299Z,1021.60
2018-09-25T11:13:55.358Z,1021.61
2018-09-25T11:14:55.276Z,1021.63
2018-09-25T11:15:55.266Z,1021.62
2018-09-25T11:16:55.263Z,1021.65
2018-09-25T11:17:55.242Z,1021.64
2018-09-25T11:18:55.237Z,1021.64
2018-09-25T11:19:55.244Z,1021.64
2018-09-25T11:20:55.211Z,1021.66
2018-09-25T11:21:55.427Z,1021.63
2018-09-25T11:22:55.189Z,1021.61
2018-09-25T11:23:55.178Z,1021.64
2018-09-25T11:24:55.185Z,1021.69
2018-09-25T11:25:55.152Z,1021.64
2018-09-25T11:26:55.156Z,1021.68
2018-09-25T11:27:55.133Z,1021.71
2018-09-25T11:28:55.118Z,1021.64
2018-09-25T11:29:55.132Z,1021.64
2018-09-25T11:30:55.096Z,1021.70
2018-09-25T11:31:55.092Z,1021.70
2018-09-25T11:32:55.076Z,1021.67
2018-09-25T11:33:55.062Z,1021.69
2018-09-25T11:34:55.075Z,1021.64
2018-09-25T11:35:55.040Z,1021.66
2018-09-25T11:36:55.030Z,1021.65
2018-09-25T11:37:55.027Z,1021.68
2018-09-25T11:38:55.014Z,1021.70
2018-09-25T11:39:55.017Z,1021.69
2018-09-25T11:40:55.025Z,1021.70
2018-09-25T11:41:54.972Z,1021.71
2018-09-25T11:42:54.962Z,1021.73
2018-09-25T11:43:54.958Z,1021.70
2018-09-25T11:44:54.960Z,1021.69
2018-09-25T11:45:54.985Z,1021.71
2018-09-25T11:46:55.049Z,1021.66
2018-09-25T11:47:54.907Z,1021.69
2018-09-25T11:48:54.901Z,1021.67
2018-09-25T11:49:54.979Z,1021.65
2018-09-25T11:50:54.872Z,1021.63
2018-09-25T11:51:54.861Z,1021.64
2018-09-25T11:52:54.890Z,1021.57
2018-09-25T11:53:54.860Z,1021.58
2018-09-25T11:54:54.848Z,1021.57
2018-09-25T11:55:54.824Z,1021.54
2018-09-25T11:56:54.805Z,1021.54
2018-09-25T11:57:54.794Z,1021.49
2018-09-25T11:58:54.783Z,1021.48
2018-09-25T11:59:54.798Z,1021.43
2018-09-25T12:00:54.761Z,1021.43
2018-09-25T12:01:54.752Z,1021.46
2018-09-25T12:02:54.743Z,1021.46
2018-09-25T12:03:54.730Z,1021.47
2018-09-25T12:04:54.737Z,1021.45